createdAt,value
2023-05-10T00:00:20.085Z,96921.13
2023-05-10T00:01:21.636Z,96917.69
2023-05-10T00:02:23.295Z,96918.91
2023-05-10T00:03:25.056Z,96921.25
2023-05-10T00:04:28.444Z,96917.25
2023-05-10T00:05:30.046Z,96921.94
2023-05-10T00:06:32.510Z,96922.03
2023-05-10T00:07:34.049Z,96916.28
2023-05-10T00:08:35.691Z,96919.47
2023-05-10T00:09:37.225Z,96914.59
2023-05-10T00:10:38.950Z,96907.47
2023-05-10T00:11:40.513Z,96913.75
2023-05-10T00:12:43.085Z,96916.94
2023-05-10T00:13:44.747Z,96908.25
2023-05-10T00:14:46.348Z,96914.72
2023-05-10T00:15:47.930Z,96910.97
2023-05-10T00:16:49.514Z,96910.75
2023-05-10T00:17:51.162Z,96911.47
2023-05-10T00:18:52.761Z,96912.13
2023-05-10T00:19:54.306Z,96912.81
2023-05-10T00:20:55.967Z,96911.00
2023-05-10T00:21:57.500Z,96916.72
2023-05-10T00:22:59.056Z,96913.22
2023-05-10T00:24:01.164Z,96912.91
2023-05-10T00:25:02.725Z,96911.09
2023-05-10T00:26:04.382Z,96915.44
2023-05-10T00:27:06.031Z,96912.66
2023-05-10T00:28:07.668Z,96910.28
2023-05-10T00:29:09.244Z,96907.38
2023-05-10T00:30:11.089Z,96905.47
2023-05-10T00:31:12.646Z,96902.88
2023-05-10T00:32:15.013Z,96910.59
2023-05-10T00:33:16.629Z,96900.63
2023-05-10T00:34:18.182Z,96907.34
2023-05-10T00:35:19.973Z,96897.78
2023-05-10T00:36:22.191Z,96905.84
2023-05-10T00:37:23.809Z,96911.47
2023-05-10T00:38:25.555Z,96913.81
2023-05-10T00:39:29.558Z,96900.81
2023-05-10T00:40:31.650Z,96909.56
2023-05-10T00:41:33.743Z,96907.34
2023-05-10T00:42:35.313Z,96910.91
2023-05-10T00:43:36.916Z,96905.44
2023-05-10T00:44:38.479Z,96901.72
2023-05-10T00:45:41.414Z,96902.59
2023-05-10T00:46:43.259Z,96904.19
2023-05-10T00:47:44.910Z,96899.28
2023-05-10T00:48:46.799Z,96898.97
2023-05-10T00:49:48.776Z,96906.00
2023-05-10T00:50:50.566Z,96901.50
2023-05-10T00:51:52.226Z,96908.44
2023-05-10T00:52:54.006Z,96901.47
2023-05-10T00:53:57.015Z,96898.94
2023-05-10T00:54:59.412Z,96898.53
2023-05-10T00:56:01.449Z,96900.53
2023-05-10T00:57:04.304Z,96901.41
2023-05-10T00:58:05.985Z,96898.94
2023-05-10T00:59:09.881Z,96901.75
2023-05-10T01:00:12.306Z,96898.94
2023-05-10T01:01:14.786Z,96902.75
2023-05-10T01:02:16.494Z,96895.47
2023-05-10T01:03:18.269Z,96901.22
2023-05-10T01:04:22.784Z,96895.13
2023-05-10T01:05:24.429Z,96900.84
2023-05-10T01:06:26.069Z,96902.09
2023-05-10T01:07:27.694Z,96901.22
2023-05-10T01:08:29.974Z,96902.75
2023-05-10T01:09:32.016Z,96907.47
2023-05-10T01:10:33.830Z,96897.78
2023-05-10T01:11:39.379Z,96901.44
2023-05-10T01:12:43.846Z,96907.34
2023-05-10T01:13:53.388Z,96901.03
2023-05-10T01:14:55.884Z,96902.31
2023-05-10T01:15:58.091Z,96903.22
2023-05-10T01:17:01.510Z,96896.69
2023-05-10T01:18:04.306Z,96897.22
2023-05-10T01:19:17.606Z,96904.97
2023-05-10T01:20:19.466Z,96905.44
2023-05-10T01:21:21.601Z,96899.78
2023-05-10T01:22:26.000Z,96899.16
2023-05-10T01:24:04.540Z,96897.78
2023-05-10T01:25:24.917Z,96901.34
2023-05-10T01:26:47.470Z,96898.13
2023-05-10T01:28:05.578Z,96895.41
2023-05-10T01:29:25.880Z,96894.75
2023-05-10T01:30:30.685Z,96893.00
2023-05-10T01:31:32.627Z,96892.13
2023-05-10T01:32:55.422Z,96891.78
2023-05-10T01:34:03.202Z,96892.91
2023-05-10T01:35:14.151Z,96890.66
2023-05-10T01:36:27.983Z,96892.31
2023-05-10T01:37:46.664Z,96895.41
2023-05-10T01:39:03.527Z,96890.56
2023-05-10T01:40:33.274Z,96892.75
2023-05-10T01:41:39.256Z,96894.34
2023-05-10T01:42:47.622Z,96894.44
2023-05-10T01:44:00.964Z,96891.03
2023-05-10T01:45:14.476Z,96883.72
2023-05-10T01:46:21.753Z,96884.19
2023-05-10T01:47:39.991Z,96890.03
2023-05-10T01:48:48.456Z,96880.56
2023-05-10T01:49:55.934Z,96880.97
2023-05-10T01:50:59.232Z,96882.13
2023-05-10T01:52:07.404Z,96886.16
2023-05-10T01:53:12.274Z,96882.59
2023-05-10T01:54:18.490Z,96880.16
2023-05-10T01:55:22.183Z,96883.72
2023-05-10T01:56:27.302Z,96881.59
2023-05-10T01:57:34.237Z,96885.75
2023-05-10T01:58:41.202Z,96884.50
2023-05-10T01:59:46.441Z,96877.44
2023-05-10T02:00:50.686Z,96880.72
2023-05-10T02:01:54.040Z,96882.16
2023-05-10T02:02:57.085Z,96881.38
2023-05-10T02:04:00.241Z,96880.38
2023-05-10T02:05:03.447Z,96876.13
2023-05-10T02:06:06.709Z,96879.47
2023-05-10T02:07:09.575Z,96883.31
2023-05-10T02:08:12.180Z,96879.69
2023-05-10T02:09:15.333Z,96886.88
2023-05-10T02:10:18.736Z,96878.38
2023-05-10T02:11:21.877Z,96884.63
2023-05-10T02:12:25.180Z,96882.63
2023-05-10T02:13:28.371Z,96883.16
2023-05-10T02:14:32.708Z,96883.06
2023-05-10T02:15:35.196Z,96889.75
2023-05-10T02:16:39.119Z,96888.19
2023-05-10T02:17:43.068Z,96892.13
2023-05-10T02:18:45.043Z,96884.50
2023-05-10T02:19:48.236Z,96882.13
2023-05-10T02:20:51.024Z,96881.50
2023-05-10T02:21:53.510Z,96888.44
2023-05-10T02:22:57.118Z,96885.97
2023-05-10T02:24:00.585Z,96878.13
2023-05-10T02:25:04.277Z,96881.72
2023-05-10T02:26:07.351Z,96886.63
2023-05-10T02:27:11.042Z,96883.81
2023-05-10T02:28:14.167Z,96882.81
2023-05-10T02:29:17.261Z,96886.63
2023-05-10T02:30:19.989Z,96886.81
2023-05-10T02:31:22.778Z,96884.81
2023-05-10T02:32:27.858Z,96887.03
2023-05-10T02:33:31.983Z,96882.47
2023-05-10T02:34:34.215Z,96884.72
2023-05-10T02:35:36.973Z,96884.03
2023-05-10T02:36:41.088Z,96885.25
2023-05-10T02:37:44.733Z,96879.56
2023-05-10T02:38:48.133Z,96884.94
2023-05-10T02:39:56.138Z,96875.41
2023-05-10T02:40:59.125Z,96887.63
2023-05-10T02:42:01.712Z,96881.56
2023-05-10T02:43:05.084Z,96882.25
2023-05-10T02:44:09.042Z,96884.34
2023-05-10T02:45:19.433Z,96885.91
2023-05-10T02:46:21.056Z,96881.31
2023-05-10T02:47:22.794Z,96880.31
2023-05-10T02:48:24.452Z,96876.38
2023-05-10T02:49:26.013Z,96881.31
2023-05-10T02:50:31.067Z,96877.16
2023-05-10T02:51:36.033Z,96878.94
2023-05-10T02:52:42.645Z,96877.84
2023-05-10T02:53:46.993Z,96878.16
2023-05-10T02:54:53.322Z,96874.59
2023-05-10T02:55:59.911Z,96872.91
2023-05-10T02:57:04.951Z,96877.78
2023-05-10T02:58:06.790Z,96873.53
2023-05-10T02:59:08.465Z,96870.88
2023-05-10T03:00:10.852Z,96871.06
2023-05-10T03:01:12.496Z,96876.31
2023-05-10T03:02:14.313Z,96872.84
2023-05-10T03:03:16.248Z,96867.81
2023-05-10T03:04:17.895Z,96876.31
2023-05-10T03:05:20.308Z,96872.84
2023-05-10T03:06:21.846Z,96871.94
2023-05-10T03:07:23.998Z,96872.41
2023-05-10T03:08:25.991Z,96872.22
2023-05-10T03:09:27.798Z,96867.16
2023-05-10T03:10:31.860Z,96864.81
2023-05-10T03:11:47.887Z,96871.75
2023-05-10T03:12:57.506Z,96867.16
2023-05-10T03:14:17.813Z,96870.50
2023-05-10T03:15:29.480Z,96867.50
2023-05-10T03:16:56.855Z,96869.28
2023-05-10T03:18:07.997Z,96868.16
2023-05-10T03:19:23.545Z,96870.84
2023-05-10T03:20:37.944Z,96869.72
2023-05-10T03:21:46.103Z,96866.13
2023-05-10T03:23:01.537Z,96874.38
2023-05-10T03:24:16.288Z,96879.22
2023-05-10T03:25:19.485Z,96873.38
2023-05-10T03:26:29.211Z,96870.69
2023-05-10T03:27:31.375Z,96875.50
2023-05-10T03:28:34.978Z,96868.69
2023-05-10T03:29:37.963Z,96872.28
2023-05-10T03:30:40.190Z,96870.06
2023-05-10T03:31:42.183Z,96873.97
2023-05-10T03:32:43.805Z,96874.31
2023-05-10T03:33:52.242Z,96875.84
2023-05-10T03:34:53.827Z,96880.00
2023-05-10T03:35:55.353Z,96880.78
2023-05-10T03:36:56.986Z,96879.22
2023-05-10T03:37:58.500Z,96877.78
2023-05-10T03:39:00.196Z,96878.53
2023-05-10T03:40:02.427Z,96885.47
2023-05-10T03:41:03.974Z,96875.31
2023-05-10T03:42:05.599Z,96870.44
2023-05-10T03:43:07.168Z,96881.94
2023-05-10T03:44:08.746Z,96879.59
2023-05-10T03:45:10.738Z,96885.72
2023-05-10T03:46:12.626Z,96884.63
2023-05-10T03:47:14.170Z,96884.47
2023-05-10T03:48:15.784Z,96881.78
2023-05-10T03:49:17.459Z,96882.47
2023-05-10T03:50:19.757Z,96877.38
2023-05-10T03:51:21.531Z,96889.88
2023-05-10T03:52:23.134Z,96896.16
2023-05-10T03:53:24.825Z,96888.63
2023-05-10T03:54:26.796Z,96894.34
2023-05-10T03:55:29.194Z,96891.19
2023-05-10T03:56:31.170Z,96887.41
2023-05-10T03:57:33.231Z,96903.50
2023-05-10T03:58:34.746Z,96891.19
2023-05-10T03:59:36.544Z,96897.47
2023-05-10T04:00:38.155Z,96899.38
2023-05-10T04:01:39.780Z,96897.47
2023-05-10T04:02:41.613Z,96898.41
2023-05-10T04:03:43.421Z,96897.72
2023-05-10T04:04:45.031Z,96900.19
2023-05-10T04:05:46.645Z,96895.63
2023-05-10T04:06:48.249Z,96899.53
2023-05-10T04:07:50.890Z,96902.66
2023-05-10T04:08:52.465Z,96904.00
2023-05-10T04:09:54.023Z,96905.56
2023-05-10T04:10:55.570Z,96900.66
2023-05-10T04:11:57.504Z,96900.88
2023-05-10T04:12:59.207Z,96901.63
2023-05-10T04:14:00.758Z,96903.56
2023-05-10T04:15:02.378Z,96908.91
2023-05-10T04:16:04.094Z,96906.88
2023-05-10T04:17:06.605Z,96904.41
2023-05-10T04:18:08.915Z,96907.28
2023-05-10T04:19:10.602Z,96909.53
2023-05-10T04:20:13.242Z,96903.91
2023-05-10T04:21:15.335Z,96905.50
2023-05-10T04:22:17.010Z,96906.00
2023-05-10T04:23:18.566Z,96911.84
2023-05-10T04:24:20.154Z,96916.22
2023-05-10T04:25:21.774Z,96909.53
2023-05-10T04:26:23.342Z,96912.22
2023-05-10T04:27:24.859Z,96914.91
2023-05-10T04:28:26.755Z,96915.53
2023-05-10T04:29:28.272Z,96918.00
2023-05-10T04:30:30.284Z,96918.00
2023-05-10T04:31:31.948Z,96909.78
2023-05-10T04:32:33.594Z,96919.38
2023-05-10T04:33:35.549Z,96926.66
2023-05-10T04:34:38.262Z,96916.44
2023-05-10T04:35:41.091Z,96911.84
2023-05-10T04:36:42.700Z,96919.28
2023-05-10T04:37:44.492Z,96918.19
2023-05-10T04:38:46.022Z,96913.94
2023-05-10T04:39:47.591Z,96912.34
2023-05-10T04:40:49.216Z,96910.34
2023-05-10T04:41:50.710Z,96915.03
2023-05-10T04:42:52.519Z,96916.16
2023-05-10T04:43:54.075Z,96918.38
2023-05-10T04:44:55.867Z,96911.91
2023-05-10T04:45:58.192Z,96918.03
2023-05-10T04:47:00.055Z,96911.66
2023-05-10T04:48:01.632Z,96909.97
2023-05-10T04:49:03.293Z,96914.84
2023-05-10T04:50:05.630Z,96906.03
2023-05-10T04:51:07.590Z,96906.03
2023-05-10T04:52:09.216Z,96914.53
2023-05-10T04:53:10.803Z,96906.28
2023-05-10T04:54:12.391Z,96916.22
2023-05-10T04:55:14.656Z,96915.44
2023-05-10T04:56:17.031Z,96908.38
2023-05-10T04:57:19.996Z,96914.38
2023-05-10T04:58:22.207Z,96918.97
2023-05-10T04:59:25.178Z,96923.69
2023-05-10T05:00:27.027Z,96918.75
2023-05-10T05:01:28.793Z,96920.13
2023-05-10T05:02:31.175Z,96913.34
2023-05-10T05:03:33.724Z,96914.78
2023-05-10T05:04:35.565Z,96919.50
2023-05-10T05:05:37.141Z,96910.34
2023-05-10T05:06:38.715Z,96922.75
2023-05-10T05:07:40.326Z,96921.31
2023-05-10T05:08:41.905Z,96921.31
2023-05-10T05:09:43.570Z,96922.75
2023-05-10T05:10:45.428Z,96922.63
2023-05-10T05:11:46.968Z,96918.56
2023-05-10T05:12:48.643Z,96926.59
2023-05-10T05:13:50.229Z,96920.28
2023-05-10T05:14:51.821Z,96931.13
2023-05-10T05:15:53.402Z,96933.34
2023-05-10T05:16:55.216Z,96929.56
2023-05-10T05:17:56.795Z,96927.34
2023-05-10T05:18:58.362Z,96921.31
2023-05-10T05:19:59.885Z,96925.66
2023-05-10T05:21:02.109Z,96926.59
2023-05-10T05:22:03.973Z,96934.78
2023-05-10T05:23:05.498Z,96930.22
2023-05-10T05:24:07.585Z,96932.13
2023-05-10T05:25:09.427Z,96929.75
2023-05-10T05:26:11.655Z,96936.69
2023-05-10T05:27:13.275Z,96936.38
2023-05-10T05:28:14.988Z,96933.59
2023-05-10T05:29:16.800Z,96936.75
2023-05-10T05:30:18.809Z,96935.63
2023-05-10T05:31:20.451Z,96945.03
2023-05-10T05:32:22.783Z,96935.41
2023-05-10T05:33:24.366Z,96943.66
2023-05-10T05:34:26.973Z,96937.50
2023-05-10T05:35:28.606Z,96939.88
2023-05-10T05:36:30.228Z,96942.34
2023-05-10T05:37:31.751Z,96943.03
2023-05-10T05:38:33.420Z,96941.25
2023-05-10T05:39:37.137Z,96941.72
2023-05-10T05:40:38.723Z,96945.50
2023-05-10T05:41:40.347Z,96938.31
2023-05-10T05:42:42.373Z,96933.41
2023-05-10T05:43:44.096Z,96937.66
2023-05-10T05:44:45.909Z,96937.84
2023-05-10T05:45:47.457Z,96938.97
2023-05-10T05:46:49.066Z,96938.31
2023-05-10T05:47:50.639Z,96939.88
2023-05-10T05:48:52.152Z,96937.66
2023-05-10T05:49:53.688Z,96939.88
2023-05-10T05:50:57.118Z,96940.78
2023-05-10T05:52:02.901Z,96943.13
2023-05-10T05:53:04.461Z,96944.59
2023-05-10T05:54:06.186Z,96939.22
2023-05-10T05:55:08.192Z,96947.47
2023-05-10T05:56:10.694Z,96938.97
2023-05-10T05:57:12.198Z,96948.91
2023-05-10T05:58:13.729Z,96942.13
2023-05-10T05:59:15.249Z,96944.59
2023-05-10T06:00:17.177Z,96951.78
2023-05-10T06:01:18.772Z,96950.47
2023-05-10T06:02:20.350Z,96947.78
2023-05-10T06:03:22.228Z,96952.94
2023-05-10T06:04:25.109Z,96949.59
2023-05-10T06:05:26.724Z,96956.31
2023-05-10T06:06:28.708Z,96957.88
2023-05-10T06:07:30.368Z,96958.53
2023-05-10T06:08:31.928Z,96959.19
2023-05-10T06:09:33.478Z,96959.31
2023-05-10T06:10:35.006Z,96956.78
2023-05-10T06:11:37.460Z,96957.78
2023-05-10T06:12:39.315Z,96959.03
2023-05-10T06:13:40.940Z,96964.41
2023-05-10T06:14:42.577Z,96957.16
2023-05-10T06:15:44.141Z,96958.38
2023-05-10T06:16:45.743Z,96957.91
2023-05-10T06:17:48.239Z,96961.94
2023-05-10T06:18:49.956Z,96961.94
2023-05-10T06:19:51.936Z,96962.59
2023-05-10T06:20:53.686Z,96961.69
2023-05-10T06:21:55.322Z,96964.03
2023-05-10T06:22:56.917Z,96966.25
2023-05-10T06:23:58.603Z,96962.34
2023-05-10T06:25:00.166Z,96965.47
2023-05-10T06:26:01.795Z,96965.47
2023-05-10T06:27:03.642Z,96968.50
2023-05-10T06:28:05.212Z,96962.94
2023-05-10T06:29:07.077Z,96961.69
2023-05-10T06:30:13.374Z,96963.91
2023-05-10T06:31:15.339Z,96960.09
2023-05-10T06:32:16.898Z,96959.00
2023-05-10T06:33:18.537Z,96961.69
2023-05-10T06:34:20.079Z,96965.84
2023-05-10T06:35:22.083Z,96962.84
2023-05-10T06:36:25.690Z,96964.63
2023-05-10T06:37:27.229Z,96965.53
2023-05-10T06:38:28.741Z,96963.44
2023-05-10T06:39:30.401Z,96968.22
2023-05-10T06:40:32.131Z,96956.28
2023-05-10T06:41:33.721Z,96961.75
2023-05-10T06:42:35.304Z,96962.78
2023-05-10T06:43:38.076Z,96962.78
2023-05-10T06:44:39.668Z,96974.94
2023-05-10T06:45:42.018Z,96967.47
2023-05-10T06:46:43.987Z,96967.72
2023-05-10T06:47:45.720Z,96973.66
2023-05-10T06:48:47.375Z,96968.97
2023-05-10T06:49:49.000Z,96976.13
2023-05-10T06:50:50.679Z,96961.72
2023-05-10T06:51:52.926Z,96966.53
2023-05-10T06:52:54.561Z,96970.31
2023-05-10T06:53:56.148Z,96972.78
2023-05-10T06:54:58.600Z,96972.34
2023-05-10T06:56:00.377Z,96970.13
2023-05-10T06:57:05.812Z,96970.81
2023-05-10T06:58:10.450Z,96969.88
2023-05-10T06:59:12.358Z,96969.22
2023-05-10T07:00:14.894Z,96972.94
2023-05-10T07:01:16.773Z,96974.59
2023-05-10T07:02:18.533Z,96967.44
2023-05-10T07:03:20.209Z,96967.94
2023-05-10T07:04:21.773Z,96974.19
2023-05-10T07:05:23.493Z,96966.56
2023-05-10T07:06:32.924Z,96971.38
2023-05-10T07:07:34.750Z,96977.53
2023-05-10T07:08:36.358Z,96973.75
2023-05-10T07:09:37.902Z,96969.94
2023-05-10T07:10:39.493Z,96974.84
2023-05-10T07:11:41.022Z,96972.16
2023-05-10T07:12:42.717Z,96973.06
2023-05-10T07:13:45.323Z,96975.88
2023-05-10T07:14:47.624Z,96969.38
2023-05-10T07:15:49.240Z,96967.56
2023-05-10T07:16:50.816Z,96973.06
2023-05-10T07:17:53.302Z,96971.28
2023-05-10T07:18:54.952Z,96972.16
2023-05-10T07:19:56.578Z,96968.38
2023-05-10T07:20:58.954Z,96969.06
2023-05-10T07:22:00.536Z,96969.69
2023-05-10T07:23:02.079Z,96970.59
2023-05-10T07:24:03.891Z,96976.41
2023-05-10T07:25:05.874Z,96976.19
2023-05-10T07:26:08.015Z,96977.78
2023-05-10T07:27:10.092Z,96973.75
2023-05-10T07:28:11.680Z,96975.50
2023-05-10T07:29:13.633Z,96982.25
2023-05-10T07:30:16.046Z,96986.94
2023-05-10T07:31:17.632Z,96977.44
2023-05-10T07:32:19.290Z,96979.78
2023-05-10T07:33:21.015Z,96982.03
2023-05-10T07:34:22.581Z,96975.06
2023-05-10T07:35:24.154Z,96977.75
2023-05-10T07:36:25.795Z,96982.03
2023-05-10T07:37:27.380Z,96981.78
2023-05-10T07:38:28.951Z,96980.88
2023-05-10T07:39:30.565Z,96983.16
2023-05-10T07:40:32.697Z,96984.91
2023-05-10T07:41:35.924Z,96979.66
2023-05-10T07:42:37.997Z,96985.47
2023-05-10T07:43:39.562Z,96984.78
2023-05-10T07:44:41.187Z,96982.78
2023-05-10T07:45:42.775Z,96986.50
2023-05-10T07:46:44.312Z,96982.47
2023-05-10T07:47:45.958Z,96976.50
2023-05-10T07:48:47.716Z,96986.13
2023-05-10T07:49:49.229Z,96984.53
2023-05-10T07:50:50.789Z,96981.25
2023-05-10T07:51:52.460Z,96986.38
2023-05-10T07:52:54.074Z,96986.59
2023-05-10T07:53:55.799Z,96985.94
2023-05-10T07:54:57.946Z,96987.47
2023-05-10T07:55:59.821Z,96987.78
2023-05-10T07:57:01.666Z,96992.16
2023-05-10T07:58:03.484Z,96989.13
2023-05-10T07:59:07.427Z,96989.56
2023-05-10T08:00:09.584Z,96986.84
2023-05-10T08:01:11.149Z,96985.94
2023-05-10T08:02:12.806Z,96987.69
2023-05-10T08:03:14.527Z,96981.13
2023-05-10T08:04:16.439Z,96992.97
2023-05-10T08:05:18.686Z,96984.84
2023-05-10T08:06:21.848Z,96989.06
2023-05-10T08:07:25.362Z,96986.06
2023-05-10T08:08:26.927Z,96981.34
2023-05-10T08:09:28.498Z,96987.38
2023-05-10T08:10:30.149Z,96989.91
2023-05-10T08:11:33.279Z,96988.16
2023-05-10T08:12:36.505Z,96982.06
2023-05-10T08:13:38.084Z,96986.16
2023-05-10T08:14:39.640Z,96984.31
2023-05-10T08:15:41.233Z,96985.38
2023-05-10T08:16:42.905Z,96988.50
2023-05-10T08:17:44.562Z,96980.16
2023-05-10T08:18:47.900Z,96987.53
2023-05-10T08:19:49.787Z,96986.94
2023-05-10T08:20:51.339Z,96987.28
2023-05-10T08:21:54.379Z,96987.38
2023-05-10T08:22:56.276Z,96985.88
2023-05-10T08:23:58.773Z,96987.63
2023-05-10T08:25:00.404Z,96992.06
2023-05-10T08:26:01.989Z,96992.59
2023-05-10T08:27:03.584Z,96996.41
2023-05-10T08:28:05.289Z,96996.41
2023-05-10T08:29:07.065Z,96997.72
2023-05-10T08:30:09.456Z,97000.22
2023-05-10T08:31:11.013Z,97004.41
2023-05-10T08:32:12.628Z,96996.75
2023-05-10T08:33:14.370Z,96999.38
2023-05-10T08:34:16.192Z,96986.69
2023-05-10T08:35:17.952Z,96994.16
2023-05-10T08:36:22.630Z,96996.41
2023-05-10T08:37:24.938Z,96994.50
2023-05-10T08:38:27.062Z,96993.91
2023-05-10T08:39:30.744Z,96991.72
2023-05-10T08:40:32.513Z,96985.97
2023-05-10T08:41:36.578Z,96993.63
2023-05-10T08:42:41.512Z,96982.41
2023-05-10T08:43:47.317Z,96992.13
2023-05-10T08:44:50.316Z,96992.25
2023-05-10T08:45:55.381Z,96992.25
2023-05-10T08:46:58.572Z,96994.41
2023-05-10T08:48:02.881Z,96997.09
2023-05-10T08:49:05.417Z,97000.41
2023-05-10T08:50:08.098Z,96998.56
2023-05-10T08:51:13.074Z,96999.84
2023-05-10T08:52:16.358Z,96999.25
2023-05-10T08:53:19.977Z,97004.78
2023-05-10T08:54:23.004Z,97001.75
2023-05-10T08:55:25.469Z,96997.19
2023-05-10T08:56:27.504Z,96998.06
2023-05-10T08:57:29.129Z,96998.97
2023-05-10T08:58:31.860Z,96994.53
2023-05-10T08:59:34.174Z,97000.44
2023-05-10T09:00:37.963Z,96991.28
2023-05-10T09:01:40.443Z,96999.53
2023-05-10T09:02:44.102Z,97001.63
2023-05-10T09:03:48.065Z,96998.13
2023-05-10T09:04:50.170Z,96999.53
2023-05-10T09:05:52.034Z,97003.47
2023-05-10T09:06:53.564Z,96999.69
2023-05-10T09:07:55.173Z,97005.09
2023-05-10T09:08:57.127Z,97009.44
2023-05-10T09:09:59.406Z,97000.97
2023-05-10T09:11:02.560Z,97001.81
2023-05-10T09:12:04.573Z,97003.09
2023-05-10T09:13:06.739Z,97003.53
2023-05-10T09:14:10.525Z,97001.19
2023-05-10T09:15:12.681Z,97001.81
2023-05-10T09:17:24.624Z,97003.53
2023-05-10T09:18:28.033Z,97005.59
2023-05-10T09:19:29.836Z,96997.50
2023-05-10T09:20:32.177Z,97003.59
2023-05-10T09:21:37.739Z,97002.19
2023-05-10T09:22:39.421Z,96998.41
2023-05-10T09:23:46.723Z,97001.63
2023-05-10T09:25:14.585Z,97002.25
2023-05-10T09:26:17.278Z,96997.28
2023-05-10T09:27:27.912Z,97000.63
2023-05-10T09:28:33.260Z,97000.13
2023-05-10T09:29:43.720Z,96991.72
2023-05-10T09:30:54.511Z,96992.50
2023-05-10T09:31:56.383Z,96991.50
2023-05-10T09:33:00.188Z,96995.63
2023-05-10T09:34:02.052Z,96991.28
2023-05-10T09:35:16.722Z,96996.22
2023-05-10T09:36:19.158Z,96992.16
2023-05-10T09:37:30.567Z,96994.94
2023-05-10T09:38:46.522Z,96989.59
2023-05-10T09:39:48.066Z,96990.44
2023-05-10T09:40:57.778Z,96992.72
2023-05-10T09:42:04.951Z,96995.59
2023-05-10T09:43:09.916Z,96988.91
2023-05-10T09:44:11.528Z,96995.00
2023-05-10T09:45:13.152Z,96989.75
2023-05-10T09:46:16.892Z,96989.69
2023-05-10T09:47:20.107Z,96992.69
2023-05-10T09:48:25.151Z,96985.91
2023-05-10T09:49:26.774Z,96991.16
2023-05-10T09:50:29.675Z,96984.97
2023-05-10T09:51:31.348Z,96982.22
2023-05-10T09:52:53.975Z,96984.31
2023-05-10T09:54:16.550Z,96981.19
2023-05-10T09:55:20.883Z,96980.75
2023-05-10T09:56:39.984Z,96976.84
2023-05-10T09:57:42.008Z,96974.25
2023-05-10T09:58:43.607Z,96977.09
2023-05-10T09:59:45.469Z,96982.13
2023-05-10T10:00:48.866Z,96973.69
2023-05-10T10:01:52.336Z,96978.34
2023-05-10T10:03:01.145Z,96976.44
2023-05-10T10:04:12.056Z,96976.09
2023-05-10T10:05:14.769Z,96976.09
2023-05-10T10:06:29.533Z,96973.91
2023-05-10T10:07:32.976Z,96976.94
2023-05-10T10:08:35.187Z,96976.25
2023-05-10T10:09:36.782Z,96975.53
2023-05-10T10:10:39.764Z,96974.69
2023-05-10T10:11:42.519Z,96965.47
2023-05-10T10:12:45.617Z,96974.34
2023-05-10T10:13:47.354Z,96963.16
2023-05-10T10:14:50.556Z,96968.44
2023-05-10T10:15:53.699Z,96970.25
2023-05-10T10:17:05.517Z,96964.88
2023-05-10T10:18:13.372Z,96966.72
2023-05-10T10:19:15.839Z,96965.00
2023-05-10T10:20:19.273Z,96960.31
2023-05-10T10:21:21.517Z,96963.69
2023-05-10T10:22:23.083Z,96964.28
2023-05-10T10:23:24.622Z,96959.75
2023-05-10T10:24:26.138Z,96964.19
2023-05-10T10:25:27.929Z,96969.97
2023-05-10T10:26:30.307Z,96967.72
2023-05-10T10:27:42.403Z,96969.28
2023-05-10T10:29:10.848Z,96959.91
2023-05-10T10:30:21.420Z,96963.09
2023-05-10T10:31:34.849Z,96963.25
2023-05-10T10:32:58.160Z,96961.53
2023-05-10T10:34:22.996Z,96965.88
2023-05-10T10:35:24.748Z,96964.03
2023-05-10T10:36:30.033Z,96966.59
2023-05-10T10:37:52.063Z,96961.91
2023-05-10T10:39:00.713Z,96968.84
2023-05-10T10:40:02.309Z,96962.31
2023-05-10T10:41:10.386Z,96964.97
2023-05-10T10:42:12.007Z,96959.28
2023-05-10T10:43:28.058Z,96967.31
2023-05-10T10:44:34.774Z,96965.88
2023-05-10T10:45:41.939Z,96971.47
2023-05-10T10:47:12.933Z,96965.59
2023-05-10T10:48:23.538Z,96971.13
2023-05-10T10:49:25.184Z,96960.59
2023-05-10T10:50:26.825Z,96966.84
2023-05-10T10:51:30.103Z,96962.69
2023-05-10T10:52:39.363Z,96969.41
2023-05-10T10:53:42.031Z,96965.56
2023-05-10T10:54:51.773Z,96961.81
2023-05-10T10:56:06.504Z,96962.44
2023-05-10T10:57:19.021Z,96960.03
2023-05-10T10:58:32.338Z,96953.84
2023-05-10T10:59:33.843Z,96953.84
2023-05-10T11:00:39.505Z,96954.41
2023-05-10T11:01:45.434Z,96960.28
2023-05-10T11:02:52.548Z,96958.75
2023-05-10T11:04:06.648Z,96957.19
2023-05-10T11:05:44.592Z,96960.91
2023-05-10T11:06:46.178Z,96965.38
2023-05-10T11:07:58.162Z,96961.41
2023-05-10T11:09:00.582Z,96956.69
2023-05-10T11:10:05.934Z,96963.28
2023-05-10T11:11:08.268Z,96969.19
2023-05-10T11:12:10.320Z,96958.66
2023-05-10T11:13:11.887Z,96957.38
2023-05-10T11:14:13.511Z,96960.91
2023-05-10T11:15:15.487Z,96959.84
2023-05-10T11:16:19.393Z,96960.66
2023-05-10T11:17:28.802Z,96954.56
2023-05-10T11:18:31.507Z,96961.88
2023-05-10T11:19:33.160Z,96957.19
2023-05-10T11:20:40.974Z,96957.28
2023-05-10T11:21:50.920Z,96950.00
2023-05-10T11:22:54.043Z,96958.09
2023-05-10T11:23:57.802Z,96958.31
2023-05-10T11:24:59.727Z,96953.97
2023-05-10T11:26:05.937Z,96961.81
2023-05-10T11:27:07.819Z,96957.53
2023-05-10T11:28:09.634Z,96964.59
2023-05-10T11:29:11.407Z,96958.94
2023-05-10T11:30:13.867Z,96957.81
2023-05-10T11:31:17.547Z,96956.41
2023-05-10T11:32:20.669Z,96957.75
2023-05-10T11:33:22.320Z,96954.44
2023-05-10T11:34:29.244Z,96948.31
2023-05-10T11:35:30.859Z,96952.56
2023-05-10T11:36:37.183Z,96946.91
2023-05-10T11:37:44.675Z,96951.25
2023-05-10T11:38:47.470Z,96953.19
2023-05-10T11:39:49.207Z,96944.41
2023-05-10T11:40:52.835Z,96945.69
2023-05-10T11:41:54.580Z,96953.41
2023-05-10T11:42:57.426Z,96947.28
2023-05-10T11:43:59.767Z,96948.09
2023-05-10T11:45:02.826Z,96948.16
2023-05-10T11:46:04.544Z,96945.03
2023-05-10T11:47:06.519Z,96941.28
2023-05-10T11:48:08.915Z,96946.78
2023-05-10T11:49:11.292Z,96935.19
2023-05-10T11:50:12.926Z,96942.25
2023-05-10T11:51:14.471Z,96941.53
2023-05-10T11:52:15.977Z,96944.56
2023-05-10T11:53:17.517Z,96939.72
2023-05-10T11:54:19.022Z,96942.72
2023-05-10T11:55:20.931Z,96939.84
2023-05-10T11:56:23.056Z,96941.06
2023-05-10T11:57:28.508Z,96940.69
2023-05-10T11:58:30.062Z,96936.81
2023-05-10T11:59:31.715Z,96940.69
2023-05-10T12:00:33.642Z,96941.41
2023-05-10T12:01:36.188Z,96938.38
2023-05-10T12:02:38.323Z,96934.66
2023-05-10T12:03:41.491Z,96939.34
2023-05-10T12:04:43.449Z,96938.25
2023-05-10T12:05:45.072Z,96930.25
2023-05-10T12:06:47.885Z,96941.09
2023-05-10T12:07:49.591Z,96933.06
2023-05-10T12:08:54.547Z,96933.88
2023-05-10T12:10:06.352Z,96937.47
2023-05-10T12:11:11.336Z,96935.97
2023-05-10T12:12:18.789Z,96932.88
2023-05-10T12:13:21.534Z,96934.81
2023-05-10T12:14:23.547Z,96928.25
2023-05-10T12:15:25.831Z,96929.72
2023-05-10T12:16:30.768Z,96928.91
2023-05-10T12:17:32.689Z,96929.00
2023-05-10T12:18:34.589Z,96922.69
2023-05-10T12:19:40.219Z,96923.84
2023-05-10T12:20:42.294Z,96921.22
2023-05-10T12:21:45.180Z,96923.06
2023-05-10T12:23:00.194Z,96921.94
2023-05-10T12:24:06.304Z,96922.69
2023-05-10T12:25:09.776Z,96926.63
2023-05-10T12:26:11.602Z,96912.00
2023-05-10T12:27:13.723Z,96920.22
2023-05-10T12:28:15.433Z,96917.97
2023-05-10T12:29:19.865Z,96919.88
2023-05-10T12:30:26.547Z,96913.72